Time;durP1;ratioP1;P1;durP2;ratioP2;P2;SDS_P1;SDS_P2;PMS_P1;PMS_P2;Temp;Humidity;BMP_temperature;BMP_pressure;BME280_temperature;BME280_humidity;BME280_pressure;Samples;Min_cycle;Max_cycle;Signal;HPM_P1;HPM_P2
2024/03/12 00:00:06;;;;;;;;;;;;;;;;;;5035970;27;19929;-77
2024/03/12 00:02:34;;;;;;;;;;;;;;;;;;5042254;27;19929;-77
2024/03/12 00:05:05;;;;;;;;;;;;;;;;;;5035590;27;20036;-77
2024/03/12 00:07:33;;;;;;;;;;;;;;;;;;5041084;27;20015;-78
2024/03/12 00:10:00;;;;;;;;;;;;;;;;;;5033457;28;19940;-77
2024/03/12 00:12:27;;;;;;;;;;;;;;;;;;5034748;27;19974;-77
2024/03/12 00:14:55;;;;;;;;;;;;;;;;;;5038957;27;20012;-77
2024/03/12 00:17:22;;;;;;;;;;;;;;;;;;5037984;27;19929;-77
2024/03/12 00:19:52;;;;;;;;;;;;;;;;;;5047702;27;19997;-77
2024/03/12 00:22:19;;;;;;;;;;;;;;;;;;5042156;27;20311;-77
2024/03/12 00:24:46;;;;;;;;;;;;;;;;;;5038981;27;19929;-77
2024/03/12 00:27:13;;;;;;;;;;;;;;;;;;5043392;27;19933;-77
2024/03/12 00:29:40;;;;;;;;;;;;;;;;;;5036697;27;19933;-78
2024/03/12 00:32:08;;;;;;;;;;;;;;;;;;5033843;27;19981;-78
2024/03/12 00:34:35;;;;;;;;;;;;;;;;;;5042585;27;19967;-77
2024/03/12 00:37:03;;;;;;;;;;;;;;;;;;5049261;28;19933;-76
2024/03/12 00:39:30;;;;;;;;;;;;;;;;;;5038707;27;20401;-77
2024/03/12 00:41:58;;;;;;;;;;;;;;;;;;5110750;27;19929;-77
2024/03/12 00:44:25;;;;;;;;;;;;;;;;;;5046731;27;19936;-75
2024/03/12 00:46:52;;;;;;;;;;;;;;;;;;5040844;27;19972;-77
2024/03/12 00:49:19;;;;;;;;;;;;;;;;;;5044741;27;19968;-77
2024/03/12 00:51:48;;;;;;;;;;;;;;;;;;5042933;28;19925;-76
2024/03/12 00:54:15;;;;;;;;;;;;;;;;;;5063272;27;19930;-76
2024/03/12 00:56:42;;;;;;;;;;;;;;;;;;5104617;27;19925;-76
2024/03/12 00:59:10;;;;;;;;;;;;;;;;;;5047774;27;19937;-75
2024/03/12 01:01:37;;;;;;;;;;;;;;;;;;5040595;27;19929;-76
2024/03/12 01:04:04;;;;;;;;;;;;;;;;;;5069589;27;19951;-77
2024/03/12 01:06:34;;;;;;;;;;;;;;;;;;5088887;27;19935;-76
2024/03/12 01:09:06;;;;;;;;;;;;;;;;;;5043477;27;19947;-76
2024/03/12 01:11:33;;;;;;;;;;;;;;;;;;5036253;27;19925;-77
2024/03/12 01:14:00;;;;;;;;;;;;;;;;;;5041776;27;20485;-76
2024/03/12 01:16:29;;;;;;;;;;;;;;;;;;5040453;27;19932;-76
2024/03/12 01:18:56;;;;;;;;;;;;;;;;;;5042720;27;20485;-76
2024/03/12 01:21:24;;;;;;;;;;;;;;;;;;5040673;27;20008;-77
2024/03/12 01:23:51;;;;;;;;;;;;;;;;;;5051012;27;19936;-78
2024/03/12 01:26:18;;;;;;;;;;;;;;;;;;5049261;27;19929;-78
2024/03/12 01:28:45;;;;;;;;;;;;;;;;;;5097149;27;20303;-76
2024/03/12 01:31:15;;;;;;;;;;;;;;;;;;5043552;27;19928;-76
2024/03/12 01:33:42;;;;;;;;;;;;;;;;;;5036873;27;19928;-75
2024/03/12 01:36:18;;;;;;;;;;;;;;;;;;5051383;27;19929;-76
2024/03/12 01:38:48;;;;;;;;;;;;;;;;;;5050777;27;20015;-76
2024/03/12 01:41:16;;;;;;;;;;;;;;;;;;5038351;27;19929;-75
2024/03/12 01:43:43;;;;;;;;;;;;;;;;;;5043567;27;19968;-76
2024/03/12 01:46:10;;;;;;;;;;;;;;;;;;5043204;27;19932;-78
2024/03/12 01:48:38;;;;;;;;;;;;;;;;;;5031558;28;20016;-76
2024/03/12 01:51:05;;;;;;;;;;;;;;;;;;5041510;27;19954;-75
2024/03/12 01:53:33;;;;;;;;;;;;;;;;;;5049528;27;19925;-76
2024/03/12 01:56:01;;;;;;;;;;;;;;;;;;5044751;27;19935;-76
2024/03/12 01:58:28;;;;;;;;;;;;;;;;;;5048493;27;19925;-76
2024/03/12 02:00:55;;;;;;;;;;;;;;;;;;5040698;27;19932;-76
2024/03/12 02:03:23;;;;;;;;;;;;;;;;;;5050016;27;19928;-76
2024/03/12 02:05:50;;;;;;;;;;;;;;;;;;5041931;27;20019;-76
2024/03/12 02:08:17;;;;;;;;;;;;;;;;;;5049671;28;19928;-76
2024/03/12 02:10:44;;;;;;;;;;;;;;;;;;5036589;28;20026;-76
2024/03/12 02:13:11;;;;;;;;;;;;;;;;;;5041521;28;19970;-76
2024/03/12 02:15:38;;;;;;;;;;;;;;;;;;5052949;28;19935;-77
2024/03/12 02:18:07;;;;;;;;;;;;;;;;;;5037528;28;20465;-76
2024/03/12 02:20:34;;;;;;;;;;;;;;;;;;5041425;27;19929;-76
2024/03/12 02:23:01;;;;;;;;;;;;;;;;;;5032019;28;19944;-76
2024/03/12 02:25:28;;;;;;;;;;;;;;;;;;5042777;27;20400;-76
2024/03/12 02:27:56;;;;;;;;;;;;;;;;;;5030197;28;20452;-77
2024/03/12 02:30:23;;;;;;;;;;;;;;;;;;5034249;28;20017;-76
2024/03/12 02:32:52;;;;;;;;;;;;;;;;;;5035854;28;19933;-76
2024/03/12 02:35:19;;;;;;;;;;;;;;;;;;5035716;28;19936;-77
2024/03/12 02:37:46;;;;;;;;;;;;;;;;;;5039499;28;20450;-77
2024/03/12 02:40:13;;;;;;;;;;;;;;;;;;5041073;28;19957;-77
2024/03/12 02:42:41;;;;;;;;;;;;;;;;;;5033450;28;19929;-76
2024/03/12 02:45:08;;;;;;;;;;;;;;;;;;5041450;28;21282;-77
2024/03/12 02:47:35;;;;;;;;;;;;;;;;;;5030159;28;19933;-75
2024/03/12 02:50:02;;;;;;;;;;;;;;;;;;5030401;28;19929;-77
2024/03/12 02:52:29;;;;;;;;;;;;;;;;;;5031308;27;20478;-77
2024/03/12 02:54:56;;;;;;;;;;;;;;;;;;5028544;27;19953;-77
2024/03/12 02:57:23;;;;;;;;;;;;;;;;;;5031325;28;19929;-75
2024/03/12 02:59:50;;;;;;;;;;;;;;;;;;5047771;28;19929;-77
2024/03/12 03:02:17;;;;;;;;;;;;;;;;;;5037448;28;19929;-78
2024/03/12 03:04:44;;;;;;;;;;;;;;;;;;5049524;27;19950;-77
2024/03/12 03:07:12;;;;;;;;;;;;;;;;;;5037103;28;20032;-77
2024/03/12 03:09:39;;;;;;;;;;;;;;;;;;5034680;28;20031;-78
2024/03/12 03:12:06;;;;;;;;;;;;;;;;;;5049373;28;19974;-77
2024/03/12 03:14:33;;;;;;;;;;;;;;;;;;5033576;28;19929;-77
2024/03/12 03:17:00;;;;;;;;;;;;;;;;;;5041106;28;19929;-77
2024/03/12 03:19:27;;;;;;;;;;;;;;;;;;5036384;27;19936;-77
2024/03/12 03:21:54;;;;;;;;;;;;;;;;;;5032723;28;19933;-77
2024/03/12 03:24:21;;;;;;;;;;;;;;;;;;5049284;28;19933;-75
2024/03/12 03:26:50;;;;;;;;;;;;;;;;;;5049750;28;19929;-76
2024/03/12 03:29:21;;;;;;;;;;;;;;;;;;5045997;28;20547;-78
2024/03/12 03:31:49;;;;;;;;;;;;;;;;;;5036216;28;19929;-77
2024/03/12 03:34:17;;;;;;;;;;;;;;;;;;5034801;28;20390;-77
2024/03/12 03:36:44;;;;;;;;;;;;;;;;;;5035221;28;19955;-77
2024/03/12 03:39:11;;;;;;;;;;;;;;;;;;5030462;28;19959;-75
2024/03/12 03:41:38;;;;;;;;;;;;;;;;;;5049251;28;20372;-77
2024/03/12 03:44:05;;;;;;;;;;;;;;;;;;5039191;28;19982;-76
2024/03/12 03:46:33;;;;;;;;;;;;;;;;;;5041589;28;19981;-76
2024/03/12 03:49:00;;;;;;;;;;;;;;;;;;5042545;27;19933;-78
2024/03/12 03:51:27;;;;;;;;;;;;;;;;;;5029867;28;19925;-77
2024/03/12 03:53:54;;;;;;;;;;;;;;;;;;5030612;28;19993;-77
2024/03/12 03:56:23;;;;;;;;;;;;;;;;;;5035755;28;20784;-76
2024/03/12 03:58:51;;;;;;;;;;;;;;;;;;5047449;28;19936;-77
2024/03/12 04:01:18;;;;;;;;;;;;;;;;;;5029186;28;19935;-76
2024/03/12 04:03:46;;;;;;;;;;;;;;;;;;5029225;28;20016;-77
2024/03/12 04:06:13;;;;;;;;;;;;;;;;;;5029062;28;19936;-79
2024/03/12 04:08:40;;;;;;;;;;;;;;;;;;5029227;28;19990;-78
2024/03/12 04:11:07;;;;;;;;;;;;;;;;;;5032903;28;19925;-77
2024/03/12 04:13:35;;;;;;;;;;;;;;;;;;5041685;28;19979;-77
2024/03/12 04:16:03;;;;;;;;;;;;;;;;;;5045615;27;19941;-77
2024/03/12 04:18:33;;;;;;;;;;;;;;;;;;5039798;28;21309;-76
2024/03/12 04:21:00;;;;;;;;;;;;;;;;;;5032226;27;20024;-77
2024/03/12 04:23:27;;;;;;;;;;;;;;;;;;5043941;27;19929;-76
2024/03/12 04:25:54;;;;;;;;;;;;;;;;;;5043697;27;19939;-78
2024/03/12 04:28:22;;;;;;;;;;;;;;;;;;5049006;27;19929;-76
2024/03/12 04:30:49;;;;;;;;;;;;;;;;;;5044463;27;19979;-78
2024/03/12 04:33:17;;;;;;;;;;;;;;;;;;5028970;27;20117;-77
2024/03/12 04:35:44;;;;;;;;;;;;;;;;;;5033656;27;19956;-77
2024/03/12 04:38:12;;;;;;;;;;;;;;;;;;5036857;27;19929;-76
2024/03/12 04:40:39;;;;;;;;;;;;;;;;;;5046315;27;19935;-78
2024/03/12 04:43:06;;;;;;;;;;;;;;;;;;5040615;27;19954;-77
2024/03/12 04:45:33;;;;;;;;;;;;;;;;;;5037316;28;19925;-77
2024/03/12 04:48:00;;;;;;;;;;;;;;;;;;5028288;28;20383;-77
2024/03/12 04:50:28;;;;;;;;;;;;;;;;;;5034564;28;19929;-76
2024/03/12 04:52:55;;;;;;;;;;;;;;;;;;5029586;28;19940;-76
2024/03/12 04:55:23;;;;;;;;;;;;;;;;;;5032331;28;19932;-75
2024/03/12 04:57:50;;;;;;;;;;;;;;;;;;5032603;28;20383;-76
2024/03/12 05:00:19;;;;;;;;;;;;;;;;;;5028960;28;19968;-76
2024/03/12 05:02:46;;;;;;;;;;;;;;;;;;5038864;28;20017;-76
2024/03/12 05:05:17;;;;;;;;;;;;;;;;;;5033464;28;19933;-78
2024/03/12 05:07:44;;;;;;;;;;;;;;;;;;5042458;28;20383;-76
2024/03/12 05:10:12;;;;;;;;;;;;;;;;;;5047859;28;19925;-76
2024/03/12 05:12:39;;;;;;;;;;;;;;;;;;5047605;27;20012;-77
2024/03/12 05:15:07;;;;;;;;;;;;;;;;;;5045637;28;19929;-76
2024/03/12 05:17:34;;;;;;;;;;;;;;;;;;5027982;28;19940;-76
2024/03/12 05:20:01;;;;;;;;;;;;;;;;;;5044712;27;19973;-75
2024/03/12 05:22:28;;;;;;;;;;;;;;;;;;5050053;28;19929;-76
2024/03/12 05:24:56;;;;;;;;;;;;;;;;;;5047224;28;19933;-76
2024/03/12 05:27:24;;;;;;;;;;;;;;;;;;5038185;28;19929;-75
2024/03/12 05:29:54;;;;;;;;;;;;;;;;;;5031140;28;19929;-77
2024/03/12 05:32:21;;;;;;;;;;;;;;;;;;5042874;28;20371;-77
2024/03/12 05:34:52;;;;;;;;;;;;;;;;;;5039329;28;20479;-76
2024/03/12 05:37:29;;;;;;;;;;;;;;;;;;5031074;28;19936;-76
2024/03/12 05:40:14;;;;;;;;;;;;;;;;;;5031917;28;19925;-76
2024/03/12 05:48:19;;;;;;;;;;;;;;;;;;5102869;28;20306;-75
2024/03/12 05:50:46;;;;;;;;;;;;;;;;;;5104434;27;19935;-77
2024/03/12 05:53:13;;;;;;;;;;;;;;;;;;5109537;27;19932;-77
2024/03/12 05:55:41;;;;;;;;;;;;;;;;;;5109836;28;20000;-77
2024/03/12 05:58:10;;;;;;;;;;;;;;;;;;5094378;28;19939;-73
2024/03/12 06:00:37;;;;;;;;;;;;;;;;;;5101193;28;19938;-76
2024/03/12 06:03:06;;;;;;;;;;;;;;;;;;5099683;27;19928;-77
2024/03/12 06:05:33;;;;;;;;;;;;;;;;;;5091416;28;19974;-76
2024/03/12 06:08:00;;;;;;;;;;;;;;;;;;5095478;28;19928;-76
2024/03/12 06:10:28;;;;;;;;;;;;;;;;;;5105990;28;20380;-77
2024/03/12 06:12:55;;;;;;;;;;;;;;;;;;5111366;28;20449;-77
2024/03/12 06:15:22;;;;;;;;;;;;;;;;;;5109955;28;20514;-77
2024/03/12 06:17:49;;;;;;;;;;;;;;;;;;5107131;28;19928;-77
2024/03/12 06:20:16;;;;;;;;;;;;;;;;;;5100181;28;19931;-77
2024/03/12 06:22:43;;;;;;;;;;;;;;;;;;5047639;28;19984;-76
2024/03/12 06:25:10;;;;;;;;;;;;;;;;;;5034107;28;19936;-77
2024/03/12 06:27:38;;;;;;;;;;;;;;;;;;5034145;28;19929;-77
2024/03/12 06:30:05;;;;;;;;;;;;;;;;;;5040118;28;19929;-77
2024/03/12 06:32:33;;;;;;;;;;;;;;;;;;5043579;28;20476;-76
2024/03/12 06:35:00;;;;;;;;;;;;;;;;;;5041296;27;20391;-77
2024/03/12 06:37:27;;;;;;;;;;;;;;;;;;5045241;28;19929;-78
2024/03/12 06:39:54;;;;;;;;;;;;;;;;;;5042431;27;20474;-76
2024/03/12 06:42:25;;;;;;;;;;;;;;;;;;5049066;28;19929;-76
2024/03/12 06:44:52;;;;;;;;;;;;;;;;;;5030194;28;20012;-76
2024/03/12 06:47:20;;;;;;;;;;;;;;;;;;5045016;28;19929;-73
2024/03/12 06:49:48;;;;;;;;;;;;;;;;;;5040624;28;19928;-76
2024/03/12 06:52:15;;;;;;;;;;;;;;;;;;5044565;28;20473;-75
2024/03/12 06:54:44;;;;;;;;;;;;;;;;;;5037651;28;19929;-77
2024/03/12 06:57:11;;;;;;;;;;;;;;;;;;5040910;28;19929;-76
2024/03/12 06:59:40;;;;;;;;;;;;;;;;;;5035555;28;19982;-77
2024/03/12 07:02:07;;;;;;;;;;;;;;;;;;5043428;27;19939;-74
2024/03/12 07:04:43;;;;;;;;;;;;;;;;;;5032057;27;20311;-75
2024/03/12 07:07:11;;;;;;;;;;;;;;;;;;5027185;28;20004;-75
2024/03/12 07:09:40;;;;;;;;;;;;;;;;;;5038362;27;20044;-71
2024/03/12 07:12:08;;;;;;;;;;;;;;;;;;5028214;28;19971;-71
2024/03/12 07:14:42;;;;;;;;;;;;;;;;;;5034686;28;20044;-73
2024/03/12 07:17:10;;;;;;;;;;;;;;;;;;5036143;28;19964;-73
2024/03/12 07:19:37;;;;;;;;;;;;;;;;;;5035777;27;19929;-74
2024/03/12 07:22:07;;;;;;;;;;;;;;;;;;5032335;27;19929;-73
2024/03/12 07:24:34;;;;;;;;;;;;;;;;;;5032654;27;20399;-73
2024/03/12 07:27:01;;;;;;;;;;;;;;;;;;5026517;28;19930;-73
2024/03/12 07:29:28;;;;;;;;;;;;;;;;;;5027580;28;20371;-73
2024/03/12 07:31:55;;;;;;;;;;;;;;;;;;5025817;28;20401;-73
2024/03/12 07:34:22;;;;;;;;;;;;;;;;;;5029787;27;19933;-73
2024/03/12 07:36:49;;;;;;;;;;;;;;;;;;5023676;28;19982;-73
2024/03/12 07:39:25;;;;;;;;;;;;;;;;;;5026741;28;20009;-73
2024/03/12 07:41:52;;;;;;;;;;;;;;;;;;5059075;22;20023;-74
2024/03/12 07:44:20;;;;;;;;;;;;;;;;;;5036274;28;19952;-75
2024/03/12 07:46:47;;;;;;;;;;;;;;;;;;5048500;22;19935;-74
2024/03/12 07:49:20;;;;;;;;;;;;;;;;;;5033709;28;19936;-75
2024/03/12 07:51:49;;;;;;;;;;;;;;;;;;5040555;28;19935;-74
2024/03/12 07:54:18;;;;;;;;;;;;;;;;;;5034437;28;19976;-74
2024/03/12 07:56:48;;;;;;;;;;;;;;;;;;5033337;28;19979;-71
2024/03/12 07:59:16;;;;;;;;;;;;;;;;;;5037524;28;19979;-74
2024/03/12 08:01:44;;;;;;;;;;;;;;;;;;5030538;28;20358;-73
2024/03/12 08:04:12;;;;;;;;;;;;;;;;;;5039578;28;19932;-74
2024/03/12 08:06:39;;;;;;;;;;;;;;;;;;5038656;28;19928;-74
2024/03/12 08:09:07;;;;;;;;;;;;;;;;;;5032430;28;19928;-73
2024/03/12 08:11:34;;;;;;;;;;;;;;;;;;5047103;28;20310;-74
2024/03/12 08:14:01;;;;;;;;;;;;;;;;;;5042338;28;20323;-74
2024/03/12 08:16:29;;;;;;;;;;;;;;;;;;5039558;28;20552;-74
2024/03/12 08:18:58;;;;;;;;;;;;;;;;;;5036978;28;20471;-74
2024/03/12 08:21:27;;;;;;;;;;;;;;;;;;5045029;28;19975;-73
2024/03/12 08:23:54;;;;;;;;;;;;;;;;;;5043075;28;19929;-73
2024/03/12 08:26:21;;;;;;;;;;;;;;;;;;5029770;28;19975;-73
2024/03/12 08:28:48;;;;;;;;;;;;;;;;;;5043912;28;19932;-74
2024/03/12 08:31:15;;;;;;;;;;;;;;;;;;5042894;28;20020;-74
2024/03/12 08:33:43;;;;;;;;;;;;;;;;;;5048271;28;20613;-75
2024/03/12 08:36:10;;;;;;;;;;;;;;;;;;5046794;28;19929;-75
2024/03/12 08:38:38;;;;;;;;;;;;;;;;;;5040217;28;20412;-73
2024/03/12 08:41:08;;;;;;;;;;;;;;;;;;5043173;28;19933;-73
2024/03/12 08:43:36;;;;;;;;;;;;;;;;;;5053366;28;20354;-73
2024/03/12 08:46:03;;;;;;;;;;;;;;;;;;5046981;28;19928;-73
2024/03/12 08:48:30;;;;;;;;;;;;;;;;;;5044245;28;19932;-73
2024/03/12 08:50:57;;;;;;;;;;;;;;;;;;5039631;28;20004;-73
2024/03/12 08:53:25;;;;;;;;;;;;;;;;;;5038992;28;20032;-73
2024/03/12 08:55:52;;;;;;;;;;;;;;;;;;5041799;28;21713;-73
2024/03/12 08:58:19;;;;;;;;;;;;;;;;;;5047198;28;19968;-73
2024/03/12 09:00:46;;;;;;;;;;;;;;;;;;5048889;28;20029;-73
2024/03/12 09:03:14;;;;;;;;;;;;;;;;;;5044498;28;19956;-75
2024/03/12 09:05:41;;;;;;;;;;;;;;;;;;5036101;28;20388;-75
2024/03/12 09:08:09;;;;;;;;;;;;;;;;;;5003395;22;19930;-73
2024/03/12 09:10:36;;;;;;;;;;;;;;;;;;4967741;28;19936;-74
2024/03/12 09:13:03;;;;;;;;;;;;;;;;;;4961210;28;20391;-74
2024/03/12 09:15:31;;;;;;;;;;;;;;;;;;4972771;28;19938;-74
2024/03/12 09:17:58;;;;;;;;;;;;;;;;;;4964174;28;19932;-74
2024/03/12 09:20:25;;;;;;;;;;;;;;;;;;4982205;28;19936;-74
2024/03/12 09:22:54;;;;;;;;;;;;;;;;;;4970568;28;19995;-74
2024/03/12 09:25:23;;;;;;;;;;;;;;;;;;4967832;28;20420;-74
2024/03/12 09:27:50;;;;;;;;;;;;;;;;;;4980548;28;19930;-74
2024/03/12 09:30:18;;;;;;;;;;;;;;;;;;4975526;28;19974;-74
2024/03/12 09:32:45;;;;;;;;;;;;;;;;;;4975757;28;20026;-74
2024/03/12 09:35:12;;;;;;;;;;;;;;;;;;4992775;28;19982;-74
2024/03/12 09:37:40;;;;;;;;;;;;;;;;;;4975275;28;19992;-76
2024/03/12 09:40:07;;;;;;;;;;;;;;;;;;4958533;28;19938;-73
2024/03/12 09:42:35;;;;;;;;;;;;;;;;;;4966315;28;19969;-78
2024/03/12 09:45:03;;;;;;;;;;;;;;;;;;4982951;28;19937;-80
2024/03/12 09:47:30;;;;;;;;;;;;;;;;;;4972958;28;20333;-81
2024/03/12 09:49:57;;;;;;;;;;;;;;;;;;4967145;28;20023;-80
2024/03/12 09:52:25;;;;;;;;;;;;;;;;;;4970354;28;20023;-80
2024/03/12 09:54:53;;;;;;;;;;;;;;;;;;4969644;28;19975;-80
2024/03/12 09:57:22;;;;;;;;;;;;;;;;;;4980320;28;19928;-80
2024/03/12 09:59:49;;;;;;;;;;;;;;;;;;4956746;28;20013;-80
2024/03/12 10:02:16;;;;;;;;;;;;;;;;;;4969905;28;19930;-81
2024/03/12 10:04:44;;;;;;;;;;;;;;;;;;4967105;28;19969;-79
2024/03/12 10:07:11;;;;;;;;;;;;;;;;;;4963010;28;20442;-80
2024/03/12 10:09:39;;;;;;;;;;;;;;;;;;4958387;28;20915;-76
2024/03/12 10:12:06;;;;;;;;;;;;;;;;;;4965152;28;19945;-75
2024/03/12 10:14:34;;;;;;;;;;;;;;;;;;4962581;28;19934;-75
2024/03/12 10:17:01;;;;;;;;;;;;;;;;;;4961481;28;20378;-75
2024/03/12 10:19:29;;;;;;;;;;;;;;;;;;4960498;28;19942;-76
2024/03/12 10:21:58;;;;;;;;;;;;;;;;;;4955651;28;20009;-76
2024/03/12 10:24:26;;;;;;;;;;;;;;;;;;4960999;28;20452;-75
2024/03/12 10:26:53;;;;;;;;;;;;;;;;;;4960892;28;19930;-71
2024/03/12 10:29:20;;;;;;;;;;;;;;;;;;4957559;28;20011;-69
2024/03/12 10:31:47;;;;;;;;;;;;;;;;;;4956601;28;19979;-72
2024/03/12 10:34:17;;;;;;;;;;;;;;;;;;4956730;28;19930;-73
2024/03/12 10:36:44;;;;;;;;;;;;;;;;;;4953393;28;19995;-73
2024/03/12 10:39:13;;;;;;;;;;;;;;;;;;4966636;28;19966;-72
2024/03/12 10:41:43;;;;;;;;;;;;;;;;;;4964923;28;19937;-72
2024/03/12 10:44:10;;;;;;;;;;;;;;;;;;4959059;28;19930;-74
2024/03/12 10:46:38;;;;;;;;;;;;;;;;;;4969020;28;19941;-75
2024/03/12 10:49:07;;;;;;;;;;;;;;;;;;4971131;28;19934;-71
2024/03/12 10:51:34;;;;;;;;;;;;;;;;;;4964673;28;19988;-73
2024/03/12 10:54:05;;;;;;;;;;;;;;;;;;4964509;28;20034;-74
2024/03/12 10:56:33;;;;;;;;;;;;;;;;;;4961695;28;19937;-73
2024/03/12 10:59:00;;;;;;;;;;;;;;;;;;4958986;28;19931;-72
2024/03/12 11:01:28;;;;;;;;;;;;;;;;;;4975913;28;20005;-72
2024/03/12 11:03:57;;;;;;;;;;;;;;;;;;4962298;28;19930;-72
2024/03/12 11:06:24;;;;;;;;;;;;;;;;;;4956644;28;19938;-72
2024/03/12 11:08:51;;;;;;;;;;;;;;;;;;4961794;28;19984;-72
2024/03/12 11:11:19;;;;;;;;;;;;;;;;;;4969025;28;19969;-72
2024/03/12 11:13:46;;;;;;;;;;;;;;;;;;4966188;28;20462;-72
2024/03/12 11:16:16;;;;;;;;;;;;;;;;;;4967343;28;19952;-72
2024/03/12 11:18:43;;;;;;;;;;;;;;;;;;4985254;28;19942;-72
2024/03/12 11:21:10;;;;;;;;;;;;;;;;;;4966245;28;19969;-72
2024/03/12 11:23:37;;;;;;;;;;;;;;;;;;4956873;28;20023;-72
2024/03/12 11:26:04;;;;;;;;;;;;;;;;;;4969721;28;19984;-73
2024/03/12 11:28:32;;;;;;;;;;;;;;;;;;4958497;28;20017;-73
2024/03/12 11:30:59;;;;;;;;;;;;;;;;;;4962492;28;19935;-73
2024/03/12 11:33:26;;;;;;;;;;;;;;;;;;4967892;28;19936;-73
2024/03/12 11:35:53;;;;;;;;;;;;;;;;;;4964610;28;19977;-73
2024/03/12 11:38:20;;;;;;;;;;;;;;;;;;4978680;28;20019;-73
2024/03/12 11:40:47;;;;;;;;;;;;;;;;;;4974121;28;19999;-73
2024/03/12 11:43:16;;;;;;;;;;;;;;;;;;4966323;28;20342;-73
2024/03/12 11:45:45;;;;;;;;;;;;;;;;;;4966826;28;19927;-73
2024/03/12 11:48:13;;;;;;;;;;;;;;;;;;4959836;28;19942;-73
2024/03/12 11:50:40;;;;;;;;;;;;;;;;;;4967331;28;19933;-72
2024/03/12 11:53:07;;;;;;;;;;;;;;;;;;4966445;28;20399;-73
2024/03/12 11:55:34;;;;;;;;;;;;;;;;;;5009992;28;19930;-74
2024/03/12 11:58:01;;;;;;;;;;;;;;;;;;4968978;28;19996;-73
2024/03/12 12:00:30;;;;;;;;;;;;;;;;;;4967706;28;19936;-73
2024/03/12 12:02:57;;;;;;;;;;;;;;;;;;4965094;28;19930;-73
2024/03/12 12:05:24;;;;;;;;;;;;;;;;;;4970497;28;19969;-71
2024/03/12 12:07:51;;;;;;;;;;;;;;;;;;4966149;28;19941;-73
2024/03/12 12:10:18;;;;;;;;;;;;;;;;;;4964526;28;19937;-74
2024/03/12 12:12:47;;;;;;;;;;;;;;;;;;5007118;28;20013;-74
2024/03/12 12:15:14;;;;;;;;;;;;;;;;;;5006206;28;19931;-73
2024/03/12 12:17:42;;;;;;;;;;;;;;;;;;4960311;28;20019;-73
2024/03/12 12:20:14;;;;;;;;;;;;;;;;;;4956496;28;19930;-74
2024/03/12 12:22:41;;;;;;;;;;;;;;;;;;4957575;28;20413;-73
2024/03/12 12:25:11;;;;;;;;;;;;;;;;;;4967408;28;19999;-74
2024/03/12 12:27:38;;;;;;;;;;;;;;;;;;4963775;28;19931;-72
2024/03/12 12:30:05;;;;;;;;;;;;;;;;;;4968058;28;20359;-75
2024/03/12 12:32:32;;;;;;;;;;;;;;;;;;4949759;28;19973;-76
2024/03/12 12:34:59;;;;;;;;;;;;;;;;;;4963244;28;20301;-75
2024/03/12 12:37:28;;;;;;;;;;;;;;;;;;4959668;28;20034;-76
2024/03/12 12:39:55;;;;;;;;;;;;;;;;;;4963435;28;19930;-75
2024/03/12 12:42:24;;;;;;;;;;;;;;;;;;4958017;28;19949;-76
2024/03/12 12:44:53;;;;;;;;;;;;;;;;;;4983498;28;19934;-77
2024/03/12 12:47:21;;;;;;;;;;;;;;;;;;4966777;28;19930;-76
2024/03/12 12:49:48;;;;;;;;;;;;;;;;;;4984536;28;20379;-76
2024/03/12 12:52:15;;;;;;;;;;;;;;;;;;4963111;28;20458;-76
2024/03/12 12:54:44;;;;;;;;;;;;;;;;;;4967793;28;19968;-77
2024/03/12 12:57:11;;;;;;;;;;;;;;;;;;4975060;28;19934;-77
2024/03/12 12:59:39;;;;;;;;;;;;;;;;;;4972292;28;19936;-75
2024/03/12 13:02:06;;;;;;;;;;;;;;;;;;4969411;28;20011;-75
2024/03/12 13:04:33;;;;;;;;;;;;;;;;;;4967544;28;19985;-74
2024/03/12 13:07:01;;;;;;;;;;;;;;;;;;4987180;28;20463;-74
2024/03/12 13:09:28;;;;;;;;;;;;;;;;;;4976876;28;20053;-74
2024/03/12 13:11:55;;;;;;;;;;;;;;;;;;4978609;28;19935;-75
2024/03/12 13:14:23;;;;;;;;;;;;;;;;;;4977244;28;20037;-75
2024/03/12 13:16:50;;;;;;;;;;;;;;;;;;4964223;28;19934;-75
2024/03/12 13:19:18;;;;;;;;;;;;;;;;;;4967647;28;20019;-75
2024/03/12 13:21:45;;;;;;;;;;;;;;;;;;4959516;28;19996;-72
2024/03/12 13:24:13;;;;;;;;;;;;;;;;;;4963133;28;20363;-72
2024/03/12 13:26:40;;;;;;;;;;;;;;;;;;4961505;28;19930;-72
2024/03/12 13:29:07;;;;;;;;;;;;;;;;;;4967582;28;19978;-71
2024/03/12 13:31:35;;;;;;;;;;;;;;;;;;4983019;28;20463;-72
2024/03/12 13:34:02;;;;;;;;;;;;;;;;;;4955408;28;20550;-72
2024/03/12 13:36:29;;;;;;;;;;;;;;;;;;4964354;28;20430;-73
2024/03/12 13:38:56;;;;;;;;;;;;;;;;;;4966557;28;20006;-72
2024/03/12 13:41:24;;;;;;;;;;;;;;;;;;4969875;28;20020;-72
2024/03/12 13:43:52;;;;;;;;;;;;;;;;;;4970816;28;20029;-72
2024/03/12 13:46:19;;;;;;;;;;;;;;;;;;4950340;28;20232;-73
2024/03/12 13:48:46;;;;;;;;;;;;;;;;;;4950531;28;19931;-73
2024/03/12 13:51:13;;;;;;;;;;;;;;;;;;4960914;28;19937;-72
2024/03/12 13:53:42;;;;;;;;;;;;;;;;;;4973090;28;19930;-72
2024/03/12 13:56:10;;;;;;;;;;;;;;;;;;4953659;28;19930;-72
2024/03/12 13:58:37;;;;;;;;;;;;;;;;;;4970010;28;20018;-73
2024/03/12 14:01:04;;;;;;;;;;;;;;;;;;4961175;28;20064;-73
2024/03/12 14:03:31;;;;;;;;;;;;;;;;;;4950120;28;19931;-72
2024/03/12 14:05:59;;;;;;;;;;;;;;;;;;4953473;28;19938;-73
2024/03/12 14:08:27;;;;;;;;;;;;;;;;;;4969221;28;19937;-74
2024/03/12 14:10:56;;;;;;;;;;;;;;;;;;4969383;28;20020;-73
2024/03/12 14:13:24;;;;;;;;;;;;;;;;;;4989800;28;19930;-72
2024/03/12 14:15:51;;;;;;;;;;;;;;;;;;4959029;28;20418;-73
2024/03/12 14:18:21;;;;;;;;;;;;;;;;;;4961596;28;19931;-75
2024/03/12 14:20:48;;;;;;;;;;;;;;;;;;4951654;28;20021;-76
2024/03/12 14:23:16;;;;;;;;;;;;;;;;;;4962877;28;19937;-76
2024/03/12 14:25:43;;;;;;;;;;;;;;;;;;4957745;28;20392;-72
2024/03/12 14:28:10;;;;;;;;;;;;;;;;;;4962031;28;19930;-73
2024/03/12 14:30:38;;;;;;;;;;;;;;;;;;4950163;28;19970;-72
2024/03/12 14:33:05;;;;;;;;;;;;;;;;;;4965095;28;19930;-73
2024/03/12 14:35:32;;;;;;;;;;;;;;;;;;4967987;28;20320;-73
2024/03/12 14:37:59;;;;;;;;;;;;;;;;;;4963956;28;19970;-72
2024/03/12 14:40:28;;;;;;;;;;;;;;;;;;4958761;28;19930;-72
2024/03/12 14:42:55;;;;;;;;;;;;;;;;;;4962552;28;19976;-73
2024/03/12 14:45:23;;;;;;;;;;;;;;;;;;4968329;28;19991;-73
2024/03/12 14:47:50;;;;;;;;;;;;;;;;;;4969038;28;19930;-73
2024/03/12 14:50:17;;;;;;;;;;;;;;;;;;4960343;28;19953;-73
2024/03/12 14:52:45;;;;;;;;;;;;;;;;;;4964198;28;19937;-72
2024/03/12 14:55:13;;;;;;;;;;;;;;;;;;4967879;28;19934;-73
2024/03/12 14:57:40;;;;;;;;;;;;;;;;;;4967333;28;19934;-72
2024/03/12 15:00:09;;;;;;;;;;;;;;;;;;4967839;28;19993;-72
2024/03/12 15:02:36;;;;;;;;;;;;;;;;;;4967122;28;19930;-71
2024/03/12 15:05:10;;;;;;;;;;;;;;;;;;4966179;28;20035;-70
2024/03/12 15:07:38;;;;;;;;;;;;;;;;;;4970224;28;19973;-72
2024/03/12 15:10:08;;;;;;;;;;;;;;;;;;4977037;28;20426;-73
2024/03/12 15:12:35;;;;;;;;;;;;;;;;;;5008979;28;19999;-72
2024/03/12 15:15:02;;;;;;;;;;;;;;;;;;4962634;28;19973;-72
2024/03/12 15:17:29;;;;;;;;;;;;;;;;;;4961021;28;19956;-73
2024/03/12 15:19:57;;;;;;;;;;;;;;;;;;4950449;28;20004;-75
2024/03/12 15:22:24;;;;;;;;;;;;;;;;;;4969801;28;19960;-74
2024/03/12 15:24:51;;;;;;;;;;;;;;;;;;4965718;28;20028;-75
2024/03/12 15:27:18;;;;;;;;;;;;;;;;;;5027205;28;19933;-73
2024/03/12 15:29:45;;;;;;;;;;;;;;;;;;4948191;28;19991;-72
2024/03/12 15:32:12;;;;;;;;;;;;;;;;;;4960977;28;19933;-73
2024/03/12 15:34:39;;;;;;;;;;;;;;;;;;4974894;28;20409;-73
2024/03/12 15:37:07;;;;;;;;;;;;;;;;;;4962960;28;19957;-72
2024/03/12 15:39:34;;;;;;;;;;;;;;;;;;4952664;28;20421;-72
2024/03/12 15:42:02;;;;;;;;;;;;;;;;;;4969433;28;20027;-72
2024/03/12 15:44:31;;;;;;;;;;;;;;;;;;4958106;28;19937;-72
2024/03/12 15:46:58;;;;;;;;;;;;;;;;;;4965339;28;19934;-73
2024/03/12 15:49:25;;;;;;;;;;;;;;;;;;4971066;28;20009;-72
2024/03/12 15:51:52;;;;;;;;;;;;;;;;;;4960867;28;19962;-72
2024/03/12 15:54:19;;;;;;;;;;;;;;;;;;4964442;28;20034;-73
2024/03/12 15:56:46;;;;;;;;;;;;;;;;;;4967648;28;19976;-72
2024/03/12 15:59:15;;;;;;;;;;;;;;;;;;4958174;28;19969;-72
2024/03/12 16:01:42;;;;;;;;;;;;;;;;;;4960070;28;19966;-73
2024/03/12 16:04:09;;;;;;;;;;;;;;;;;;4965258;28;20033;-72
2024/03/12 16:06:36;;;;;;;;;;;;;;;;;;4958539;28;19931;-73
2024/03/12 16:09:03;;;;;;;;;;;;;;;;;;4960210;28;19941;-73
2024/03/12 16:11:32;;;;;;;;;;;;;;;;;;4970961;28;20339;-73
2024/03/12 16:13:59;;;;;;;;;;;;;;;;;;4963044;28;19956;-72
2024/03/12 16:16:27;;;;;;;;;;;;;;;;;;4962224;28;19930;-72
2024/03/12 16:18:54;;;;;;;;;;;;;;;;;;4949575;28;19934;-74
2024/03/12 16:21:21;;;;;;;;;;;;;;;;;;4962276;28;19934;-69
2024/03/12 16:23:48;;;;;;;;;;;;;;;;;;4956229;28;19983;-72
2024/03/12 16:26:15;;;;;;;;;;;;;;;;;;4950992;28;19969;-72
2024/03/12 16:28:44;;;;;;;;;;;;;;;;;;4965663;28;19941;-73
2024/03/12 16:31:11;;;;;;;;;;;;;;;;;;4953169;28;20519;-70
2024/03/12 16:33:40;;;;;;;;;;;;;;;;;;4964617;28;19984;-73
2024/03/12 16:36:08;;;;;;;;;;;;;;;;;;4966149;28;19936;-73
2024/03/12 16:38:36;;;;;;;;;;;;;;;;;;4967240;28;19999;-73
2024/03/12 16:41:03;;;;;;;;;;;;;;;;;;4966407;28;20508;-72
2024/03/12 16:43:30;;;;;;;;;;;;;;;;;;4966871;28;19938;-71
2024/03/12 16:45:58;;;;;;;;;;;;;;;;;;4966201;28;19933;-72
2024/03/12 16:48:26;;;;;;;;;;;;;;;;;;4954840;28;19937;-73
2024/03/12 16:50:53;;;;;;;;;;;;;;;;;;4958437;28;19934;-66
2024/03/12 16:53:20;;;;;;;;;;;;;;;;;;4966077;28;19999;-67